Here is the Quick Look data you requested

The Data originates at the National Weather Service, and is made available here by the UAlbany Department of Atmospheric and Environmental Sciences

Surface Observations

KSHD 151855Z AUTO 29005KT 10SM SCT075 SCT090 BKN120 35/17 A2997 RMK AO2
 T03480169=
KSHD 151915Z AUTO 22005G08KT 10SM BKN080 BKN120 35/17 A2996 RMK AO2 T03540167=
KSHD 151935Z AUTO 26008G15KT 10SM SCT080 BKN120 37/17 A2996 RMK AO2 T03660165=
KSHD 151955Z AUTO 02013G16KT 10SM BKN090 BKN120 33/18 A2996 RMK AO2 LTG DSNT NE
 T03290182=
KSHD 152015Z AUTO 02007KT 10SM SCT050 SCT070 OVC090 30/19 A2996 RMK AO2
 T03010188=
KSHD 152035Z AUTO 08006KT 10SM SCT050 SCT070 SCT090 32/19 A2994 RMK AO2
 T03210191=
KSHD 152055Z AUTO 10008KT 10SM SCT090 32/18 A2993 RMK AO2 T03230179=
KSHD 152115Z AUTO 11005KT 10SM SCT090 33/18 A2992 RMK AO2 LTG DSNT E T03310176=
KSHD 152135Z AUTO 15005KT 10SM CLR 34/17 A2992 RMK AO2 T03400174=
KSHD 152155Z AUTO 20011G15KT 10SM CLR 34/17 A2991 RMK AO2 T03440173=
KSHD 152215Z AUTO 21010KT 10SM CLR 35/17 A2991 RMK AO2 T03520168=
KSHD 152235Z AUTO 20010G14KT 10SM CLR 35/17 A2991 RMK AO2 T03520166=
KSHD 152255Z AUTO 21009KT 10SM CLR 35/17 A2991 RMK AO2 T03480167=
KSHD 152315Z AUTO 21008KT 10SM CLR 35/17 A2991 RMK AO2 T03450169=
KSHD 152335Z AUTO 23005KT 10SM CLR 34/17 A2992 RMK AO2 T03400170=
KSHD 152355Z AUTO 23004KT 10SM CLR 33/17 A2992 RMK AO2 T03310167 10366 20301=
KSHD 160015Z AUTO 24004KT 10SM CLR 32/16 A2993 RMK AO2 T03170160=
KSHD 160035Z AUTO 23004KT 10SM CLR 31/16 A2993 RMK AO2 T03090156=
KSHD 160055Z AUTO 22003KT 10SM CLR 30/16 A2994 RMK AO2 T02980157=
KSHD 160115Z AUTO 00000KT 10SM CLR 30/16 A2994 RMK AO2 T02960158=
KSHD 160135Z AUTO 00000KT 10SM CLR 28/16 A2995 RMK AO2 T02820162=
KSHD 160155Z AUTO 00000KT 10SM CLR 28/16 A2995 RMK AO2 T02750163=
KSHD 160215Z AUTO 21003KT 10SM CLR 27/16 A2995 RMK AO2 T02660164=
KSHD 160235Z AUTO 23003KT 10SM CLR 26/16 A2994 RMK AO2 T02620158=
KSHD 160255Z AUTO 00000KT 10SM CLR 27/16 A2994 RMK AO2 T02650156=
KSHD 160315Z AUTO 19003KT 10SM CLR 26/16 A2994 RMK AO2 T02610160=
KSHD 160335Z AUTO 00000KT 10SM CLR 26/16 A2993 RMK AO2 T02550162=
KSHD 160355Z AUTO 00000KT 10SM CLR 25/17 A2993 RMK AO2 T02510165=
KSHD 160415Z AUTO 00000KT 10SM CLR 23/17 A2993 RMK AO2 T02330166=
KSHD 160435Z AUTO 00000KT 10SM CLR 23/17 A2993 RMK AO2 T02310165=
KSHD 160455Z AUTO 00000KT 10SM CLR 22/17 A2993 RMK AO2 T02240166=
KSHD 160515Z AUTO 00000KT 10SM CLR 24/17 A2993 RMK AO2 T02380167=
KSHD 160535Z AUTO 00000KT 10SM CLR 24/17 A2993 RMK AO2 T02430171=
KSHD 160555Z AUTO 00000KT 10SM CLR 22/17 A2993 RMK AO2 T02160169 10329 20216
 403660195=
KSHD 160615Z AUTO 00000KT 10SM CLR 23/17 A2994 RMK AO2 T02260170=
KSHD 160635Z AUTO 00000KT 10SM CLR 22/17 A2994 RMK AO2 T02150170=
KSHD 160655Z AUTO 00000KT 10SM CLR 21/17 A2995 RMK AO2 T02120170=
KSHD 160715Z AUTO 00000KT 10SM CLR 21/17 A2995 RMK AO2 T02100170=
KSHD 160735Z AUTO 00000KT 10SM CLR 20/17 A2994 RMK AO2 T02020169=
KSHD 160755Z AUTO 00000KT 10SM CLR 21/17 A2994 RMK AO2 T02110170=
KSHD 160815Z AUTO 00000KT 10SM CLR 21/17 A2995 RMK AO2 T02130170=
KSHD 160835Z AUTO 00000KT 10SM CLR 21/17 A2994 RMK AO2 T02100170=
KSHD 160855Z AUTO 00000KT 10SM CLR 21/17 A2994 RMK AO2 T02070170=
KSHD 160915Z AUTO 00000KT 10SM CLR 20/17 A2994 RMK AO2 T01980170=
KSHD 160935Z AUTO 00000KT 10SM CLR 19/17 A2995 RMK AO2 T01930168=
KSHD 160955Z AUTO 23003KT 10SM CLR 20/17 A2994 RMK AO2 T01950168=
KSHD 161015Z AUTO 00000KT 10SM CLR 20/17 A2995 RMK AO2 T01960170=
KSHD 161035Z AUTO 00000KT 10SM CLR 21/17 A2996 RMK AO2 T02100172=
KSHD 161055Z AUTO 00000KT 10SM CLR 21/17 A2997 RMK AO2 T02130172=
KSHD 161115Z AUTO 00000KT 10SM CLR 23/18 A2997 RMK AO2 T02260175=
KSHD 161135Z AUTO 00000KT 10SM CLR 24/18 A2998 RMK AO2 T02360179=
KSHD 161155Z AUTO 20003KT 10SM CLR 25/18 A2998 RMK AO2 T02520183 10252 20189=
KSHD 161215Z AUTO 19003KT 10SM CLR 27/19 A2998 RMK AO2 T02660185=
KSHD 161235Z AUTO 20006KT 10SM CLR 29/19 A2996 RMK AO2 T02850190=
KSHD 161255Z AUTO 20008KT 10SM CLR 30/19 A2996 RMK AO2 T03020194=
KSHD 161315Z AUTO 20006KT 10SM CLR 30/19 A2997 RMK AO2 T03000194=
KSHD 161335Z AUTO 22007KT 10SM CLR 31/20 A2996 RMK AO2 T03090195=
KSHD 161355Z AUTO 22007KT 10SM CLR 32/20 A2997 RMK AO2 T03170195=
KSHD 161415Z AUTO 22006KT 10SM CLR 32/19 A2997 RMK AO2 T03160193=
KSHD 161435Z AUTO 20007KT 10SM CLR 32/19 A2996 RMK AO2 T03210194=
KSHD 161455Z AUTO 20009KT 10SM CLR 33/20 A2996 RMK AO2 T03260195=
KSHD 161515Z AUTO 22008G15KT 10SM CLR 33/20 A2996 RMK AO2 T03300195=
KSHD 161535Z AUTO 23008KT 10SM CLR 33/19 A2996 RMK AO2 T03280193=
KSHD 161555Z AUTO 23006G18KT 10SM CLR 34/19 A2996 RMK AO2 T03370188=
KSHD 161615Z AUTO 23007G17KT 10SM CLR 34/19 A2995 RMK AO2 T03420190=
KSHD 161635Z AUTO 26010G16KT 10SM CLR 35/19 A2995 RMK AO2 T03500188=
KSHD 161655Z AUTO 26010G16KT 10SM CLR 35/18 A2994 RMK AO2 T03530184=
KSHD 161715Z AUTO 21009G15KT 10SM CLR 35/19 A2993 RMK AO2 T03520186=
KSHD 161735Z AUTO 23012G17KT 220V280 10SM CLR 36/18 A2992 RMK AO2 T03580180=
KSHD 161755Z AUTO 23010G16KT 10SM CLR 36/18 A2991 RMK AO2 T03620180 10363 20254=
KSHD 161815Z AUTO 24012KT 10SM SCT075 36/18 A2990 RMK AO2 T03610176=
KSHD 161835Z AUTO 23013G18KT 190V250 10SM SCT075 36/17 A2990 RMK AO2 T03610171=
KSHD 161855Z AUTO 25011G17KT 10SM SCT075 36/17 A2990 RMK AO2 T03590172=
KSHD 161915Z AUTO 23011G19KT 7SM SCT075 37/17 A2989 RMK AO2 T03710172=

Decoded Surface Observations


The weather observed at STAUNTON/SHENAND, VA (KSHD) at 02:55 PM EDT was:
  The skies were mostly cloudy.
  Temperature: 95F ( 35C)  Dewpoint:  63F ( 17C)  Relative Humidity:  34%
  Winds from the WNW(290 degs) at  6 mph.
  Altimeter:29.97 inches of mercury.
  The prevailing visibility was 10 miles.

The weather observed at STAUNTON/SHENAND, VA (KSHD) at 03:15 PM EDT was:
  The skies were mostly cloudy.
  Temperature: 95F ( 35C)  Dewpoint:  63F ( 17C)  Relative Humidity:  34%
  Winds from the SW (220 degs) at  6 mph.
  Altimeter:29.96 inches of mercury.
  The prevailing visibility was 10 miles.

The weather observed at STAUNTON/SHENAND, VA (KSHD) at 03:35 PM EDT was:
  The skies were mostly cloudy.
  Temperature: 99F ( 37C)  Dewpoint:  63F ( 17C)  Relative Humidity:  31%
  Winds from the W  (260 degs) at  9 mph.
  Altimeter:29.96 inches of mercury.
  The prevailing visibility was 10 miles.

The weather observed at STAUNTON/SHENAND, VA (KSHD) at 03:55 PM EDT was:
  The skies were mostly cloudy.
  Temperature: 91F ( 33C)  Dewpoint:  64F ( 18C)  Relative Humidity:  41%
  Winds from the NNE(020 degs) at 15 mph.
  Altimeter:29.96 inches of mercury.
  The prevailing visibility was 10 miles.

The weather observed at STAUNTON/SHENAND, VA (KSHD) at 04:15 PM EDT was:
  The skies were cloudy.
  Temperature: 86F ( 30C)  Dewpoint:  66F ( 19C)  Relative Humidity:  52%
  Winds from the NNE(020 degs) at  8 mph.
  Altimeter:29.96 inches of mercury.
  The prevailing visibility was 10 miles.

The weather observed at STAUNTON/SHENAND, VA (KSHD) at 04:35 PM EDT was:
  The skies were partly cloudy.
  Temperature: 90F ( 32C)  Dewpoint:  66F ( 19C)  Relative Humidity:  46%
  Winds from the E  (080 degs) at  7 mph.
  Altimeter:29.94 inches of mercury.
  The prevailing visibility was 10 miles.

The weather observed at STAUNTON/SHENAND, VA (KSHD) at 04:55 PM EDT was:
  The skies were partly cloudy.
  Temperature: 90F ( 32C)  Dewpoint:  64F ( 18C)  Relative Humidity:  43%
  Winds from the E  (100 degs) at  9 mph.
  Altimeter:29.93 inches of mercury.
  The prevailing visibility was 10 miles.

The weather observed at STAUNTON/SHENAND, VA (KSHD) at 05:15 PM EDT was:
  The skies were partly cloudy.
  Temperature: 91F ( 33C)  Dewpoint:  64F ( 18C)  Relative Humidity:  41%
  Winds from the ESE(110 degs) at  6 mph.
  Altimeter:29.92 inches of mercury.
  The prevailing visibility was 10 miles.

The weather observed at STAUNTON/SHENAND, VA (KSHD) at 05:35 PM EDT was:
  The skies were clear.
  Temperature: 93F ( 34C)  Dewpoint:  63F ( 17C)  Relative Humidity:  36%
  Winds from the SE (150 degs) at  6 mph.
  Altimeter:29.92 inches of mercury.
  The prevailing visibility was 10 miles.

The weather observed at STAUNTON/SHENAND, VA (KSHD) at 05:55 PM EDT was:
  The skies were clear.
  Temperature: 93F ( 34C)  Dewpoint:  63F ( 17C)  Relative Humidity:  36%
  Winds from the SSW(200 degs) at 13 mph.
  Altimeter:29.91 inches of mercury.
  The prevailing visibility was 10 miles.

The weather observed at STAUNTON/SHENAND, VA (KSHD) at 06:15 PM EDT was:
  The skies were clear.
  Temperature: 95F ( 35C)  Dewpoint:  63F ( 17C)  Relative Humidity:  34%
  Winds from the SW (210 degs) at 12 mph.
  Altimeter:29.91 inches of mercury.
  The prevailing visibility was 10 miles.

The weather observed at STAUNTON/SHENAND, VA (KSHD) at 06:35 PM EDT was:
  The skies were clear.
  Temperature: 95F ( 35C)  Dewpoint:  63F ( 17C)  Relative Humidity:  34%
  Winds from the SSW(200 degs) at 12 mph.
  Altimeter:29.91 inches of mercury.
  The prevailing visibility was 10 miles.

The weather observed at STAUNTON/SHENAND, VA (KSHD) at 06:55 PM EDT was:
  The skies were clear.
  Temperature: 95F ( 35C)  Dewpoint:  63F ( 17C)  Relative Humidity:  34%
  Winds from the SW (210 degs) at 10 mph.
  Altimeter:29.91 inches of mercury.
  The prevailing visibility was 10 miles.

The weather observed at STAUNTON/SHENAND, VA (KSHD) at 07:15 PM EDT was:
  The skies were clear.
  Temperature: 95F ( 35C)  Dewpoint:  63F ( 17C)  Relative Humidity:  34%
  Winds from the SW (210 degs) at  9 mph.
  Altimeter:29.91 inches of mercury.
  The prevailing visibility was 10 miles.

The weather observed at STAUNTON/SHENAND, VA (KSHD) at 07:35 PM EDT was:
  The skies were clear.
  Temperature: 93F ( 34C)  Dewpoint:  63F ( 17C)  Relative Humidity:  36%
  Winds from the SW (230 degs) at  6 mph.
  Altimeter:29.92 inches of mercury.
  The prevailing visibility was 10 miles.

The weather observed at STAUNTON/SHENAND, VA (KSHD) at 07:55 PM EDT was:
  The skies were clear.
  Temperature: 92F ( 33C)  Dewpoint:  62F ( 17C)  Relative Humidity:  38%
  Winds from the SW (230 degs) at  5 mph.
  Altimeter:29.92 inches of mercury.
  The prevailing visibility was 10 miles.
  The maximum temperature in the past 6 hours was  98F.

The weather observed at STAUNTON/SHENAND, VA (KSHD) at 08:15 PM EDT was:
  The skies were clear.
  Temperature: 90F ( 32C)  Dewpoint:  61F ( 16C)  Relative Humidity:  38%
  Winds from the SW (240 degs) at  5 mph.
  Altimeter:29.93 inches of mercury.
  The prevailing visibility was 10 miles.

The weather observed at STAUNTON/SHENAND, VA (KSHD) at 08:35 PM EDT was:
  The skies were clear.
  Temperature: 88F ( 31C)  Dewpoint:  61F ( 16C)  Relative Humidity:  40%
  Winds from the SW (230 degs) at  5 mph.
  Altimeter:29.93 inches of mercury.
  The prevailing visibility was 10 miles.

The weather observed at STAUNTON/SHENAND, VA (KSHD) at 08:55 PM EDT was:
  The skies were clear.
  Temperature: 86F ( 30C)  Dewpoint:  61F ( 16C)  Relative Humidity:  43%
  Winds from the SW (220 degs) at  3 mph.
  Altimeter:29.94 inches of mercury.
  The prevailing visibility was 10 miles.

The weather observed at STAUNTON/SHENAND, VA (KSHD) at 09:15 PM EDT was:
  The skies were clear.
  Temperature: 86F ( 30C)  Dewpoint:  61F ( 16C)  Relative Humidity:  43%
  Winds from the CLM(CLM degs) at  0 mph.
  Altimeter:29.94 inches of mercury.
  The prevailing visibility was 10 miles.

The weather observed at STAUNTON/SHENAND, VA (KSHD) at 09:35 PM EDT was:
  The skies were clear.
  Temperature: 82F ( 28C)  Dewpoint:  61F ( 16C)  Relative Humidity:  48%
  Winds from the CLM(CLM degs) at  0 mph.
  Altimeter:29.95 inches of mercury.
  The prevailing visibility was 10 miles.

The weather observed at STAUNTON/SHENAND, VA (KSHD) at 09:55 PM EDT was:
  The skies were clear.
  Temperature: 82F ( 28C)  Dewpoint:  61F ( 16C)  Relative Humidity:  48%
  Winds from the CLM(CLM degs) at  0 mph.
  Altimeter:29.95 inches of mercury.
  The prevailing visibility was 10 miles.

The weather observed at STAUNTON/SHENAND, VA (KSHD) at 10:15 PM EDT was:
  The skies were clear.
  Temperature: 81F ( 27C)  Dewpoint:  61F ( 16C)  Relative Humidity:  51%
  Winds from the SW (210 degs) at  3 mph.
  Altimeter:29.95 inches of mercury.
  The prevailing visibility was 10 miles.

The weather observed at STAUNTON/SHENAND, VA (KSHD) at 10:35 PM EDT was:
  The skies were clear.
  Temperature: 79F ( 26C)  Dewpoint:  61F ( 16C)  Relative Humidity:  54%
  Winds from the SW (230 degs) at  3 mph.
  Altimeter:29.94 inches of mercury.
  The prevailing visibility was 10 miles.

The weather observed at STAUNTON/SHENAND, VA (KSHD) at 10:55 PM EDT was:
  The skies were clear.
  Temperature: 81F ( 27C)  Dewpoint:  61F ( 16C)  Relative Humidity:  51%
  Winds from the CLM(CLM degs) at  0 mph.
  Altimeter:29.94 inches of mercury.
  The prevailing visibility was 10 miles.

The weather observed at STAUNTON/SHENAND, VA (KSHD) at 11:15 PM EDT was:
  The skies were clear.
  Temperature: 79F ( 26C)  Dewpoint:  61F ( 16C)  Relative Humidity:  54%
  Winds from the S  (190 degs) at  3 mph.
  Altimeter:29.94 inches of mercury.
  The prevailing visibility was 10 miles.

The weather observed at STAUNTON/SHENAND, VA (KSHD) at 11:35 PM EDT was:
  The skies were clear.
  Temperature: 79F ( 26C)  Dewpoint:  61F ( 16C)  Relative Humidity:  54%
  Winds from the CLM(CLM degs) at  0 mph.
  Altimeter:29.93 inches of mercury.
  The prevailing visibility was 10 miles.

The weather observed at STAUNTON/SHENAND, VA (KSHD) at 11:55 PM EDT was:
  The skies were clear.
  Temperature: 77F ( 25C)  Dewpoint:  63F ( 17C)  Relative Humidity:  61%
  Winds from the CLM(CLM degs) at  0 mph.
  Altimeter:29.93 inches of mercury.
  The prevailing visibility was 10 miles.

The weather observed at STAUNTON/SHENAND, VA (KSHD) at 12:15 AM EDT was:
  The skies were clear.
  Temperature: 73F ( 23C)  Dewpoint:  63F ( 17C)  Relative Humidity:  69%
  Winds from the CLM(CLM degs) at  0 mph.
  Altimeter:29.93 inches of mercury.
  The prevailing visibility was 10 miles.

The weather observed at STAUNTON/SHENAND, VA (KSHD) at 12:35 AM EDT was:
  The skies were clear.
  Temperature: 73F ( 23C)  Dewpoint:  63F ( 17C)  Relative Humidity:  69%
  Winds from the CLM(CLM degs) at  0 mph.
  Altimeter:29.93 inches of mercury.
  The prevailing visibility was 10 miles.

The weather observed at STAUNTON/SHENAND, VA (KSHD) at 12:55 AM EDT was:
  The skies were clear.
  Temperature: 72F ( 22C)  Dewpoint:  63F ( 17C)  Relative Humidity:  73%
  Winds from the CLM(CLM degs) at  0 mph.
  Altimeter:29.93 inches of mercury.
  The prevailing visibility was 10 miles.

The weather observed at STAUNTON/SHENAND, VA (KSHD) at 01:15 AM EDT was:
  The skies were clear.
  Temperature: 75F ( 24C)  Dewpoint:  63F ( 17C)  Relative Humidity:  65%
  Winds from the CLM(CLM degs) at  0 mph.
  Altimeter:29.93 inches of mercury.
  The prevailing visibility was 10 miles.

The weather observed at STAUNTON/SHENAND, VA (KSHD) at 01:35 AM EDT was:
  The skies were clear.
  Temperature: 75F ( 24C)  Dewpoint:  63F ( 17C)  Relative Humidity:  65%
  Winds from the CLM(CLM degs) at  0 mph.
  Altimeter:29.93 inches of mercury.
  The prevailing visibility was 10 miles.

The weather observed at STAUNTON/SHENAND, VA (KSHD) at 01:55 AM EDT was:
  The skies were clear.
  Temperature: 71F ( 22C)  Dewpoint:  62F ( 17C)  Relative Humidity:  75%
  Winds from the CLM(CLM degs) at  0 mph.
  Altimeter:29.93 inches of mercury.
  The prevailing visibility was 10 miles.
  The maximum temperature in the past 6 hours was  91F.
  The minimum temperature in the past 6 hours was  71F.

The weather observed at STAUNTON/SHENAND, VA (KSHD) at 02:15 AM EDT was:
  The skies were clear.
  Temperature: 73F ( 23C)  Dewpoint:  63F ( 17C)  Relative Humidity:  69%
  Winds from the CLM(CLM degs) at  0 mph.
  Altimeter:29.94 inches of mercury.
  The prevailing visibility was 10 miles.

The weather observed at STAUNTON/SHENAND, VA (KSHD) at 02:35 AM EDT was:
  The skies were clear.
  Temperature: 72F ( 22C)  Dewpoint:  63F ( 17C)  Relative Humidity:  73%
  Winds from the CLM(CLM degs) at  0 mph.
  Altimeter:29.94 inches of mercury.
  The prevailing visibility was 10 miles.

The weather observed at STAUNTON/SHENAND, VA (KSHD) at 02:55 AM EDT was:
  The skies were clear.
  Temperature: 70F ( 21C)  Dewpoint:  63F ( 17C)  Relative Humidity:  78%
  Winds from the CLM(CLM degs) at  0 mph.
  Altimeter:29.95 inches of mercury.
  The prevailing visibility was 10 miles.

The weather observed at STAUNTON/SHENAND, VA (KSHD) at 03:15 AM EDT was:
  The skies were clear.
  Temperature: 70F ( 21C)  Dewpoint:  63F ( 17C)  Relative Humidity:  78%
  Winds from the CLM(CLM degs) at  0 mph.
  Altimeter:29.95 inches of mercury.
  The prevailing visibility was 10 miles.

The weather observed at STAUNTON/SHENAND, VA (KSHD) at 03:35 AM EDT was:
  The skies were clear.
  Temperature: 68F ( 20C)  Dewpoint:  63F ( 17C)  Relative Humidity:  83%
  Winds from the CLM(CLM degs) at  0 mph.
  Altimeter:29.94 inches of mercury.
  The prevailing visibility was 10 miles.

The weather observed at STAUNTON/SHENAND, VA (KSHD) at 03:55 AM EDT was:
  The skies were clear.
  Temperature: 70F ( 21C)  Dewpoint:  63F ( 17C)  Relative Humidity:  78%
  Winds from the CLM(CLM degs) at  0 mph.
  Altimeter:29.94 inches of mercury.
  The prevailing visibility was 10 miles.

The weather observed at STAUNTON/SHENAND, VA (KSHD) at 04:15 AM EDT was:
  The skies were clear.
  Temperature: 70F ( 21C)  Dewpoint:  63F ( 17C)  Relative Humidity:  78%
  Winds from the CLM(CLM degs) at  0 mph.
  Altimeter:29.95 inches of mercury.
  The prevailing visibility was 10 miles.

The weather observed at STAUNTON/SHENAND, VA (KSHD) at 04:35 AM EDT was:
  The skies were clear.
  Temperature: 70F ( 21C)  Dewpoint:  63F ( 17C)  Relative Humidity:  78%
  Winds from the CLM(CLM degs) at  0 mph.
  Altimeter:29.94 inches of mercury.
  The prevailing visibility was 10 miles.

The weather observed at STAUNTON/SHENAND, VA (KSHD) at 04:55 AM EDT was:
  The skies were clear.
  Temperature: 70F ( 21C)  Dewpoint:  63F ( 17C)  Relative Humidity:  78%
  Winds from the CLM(CLM degs) at  0 mph.
  Altimeter:29.94 inches of mercury.
  The prevailing visibility was 10 miles.

The weather observed at STAUNTON/SHENAND, VA (KSHD) at 05:15 AM EDT was:
  The skies were clear.
  Temperature: 68F ( 20C)  Dewpoint:  63F ( 17C)  Relative Humidity:  83%
  Winds from the CLM(CLM degs) at  0 mph.
  Altimeter:29.94 inches of mercury.
  The prevailing visibility was 10 miles.

The weather observed at STAUNTON/SHENAND, VA (KSHD) at 05:35 AM EDT was:
  The skies were clear.
  Temperature: 66F ( 19C)  Dewpoint:  63F ( 17C)  Relative Humidity:  88%
  Winds from the CLM(CLM degs) at  0 mph.
  Altimeter:29.95 inches of mercury.
  The prevailing visibility was 10 miles.

The weather observed at STAUNTON/SHENAND, VA (KSHD) at 05:55 AM EDT was:
  The skies were clear.
  Temperature: 68F ( 20C)  Dewpoint:  63F ( 17C)  Relative Humidity:  83%
  Winds from the SW (230 degs) at  3 mph.
  Altimeter:29.94 inches of mercury.
  The prevailing visibility was 10 miles.

The weather observed at STAUNTON/SHENAND, VA (KSHD) at 06:15 AM EDT was:
  The skies were clear.
  Temperature: 68F ( 20C)  Dewpoint:  63F ( 17C)  Relative Humidity:  83%
  Winds from the CLM(CLM degs) at  0 mph.
  Altimeter:29.95 inches of mercury.
  The prevailing visibility was 10 miles.

The weather observed at STAUNTON/SHENAND, VA (KSHD) at 06:35 AM EDT was:
  The skies were clear.
  Temperature: 70F ( 21C)  Dewpoint:  63F ( 17C)  Relative Humidity:  78%
  Winds from the CLM(CLM degs) at  0 mph.
  Altimeter:29.96 inches of mercury.
  The prevailing visibility was 10 miles.

The weather observed at STAUNTON/SHENAND, VA (KSHD) at 06:55 AM EDT was:
  The skies were clear.
  Temperature: 70F ( 21C)  Dewpoint:  63F ( 17C)  Relative Humidity:  78%
  Winds from the CLM(CLM degs) at  0 mph.
  Altimeter:29.97 inches of mercury.
  The prevailing visibility was 10 miles.

The weather observed at STAUNTON/SHENAND, VA (KSHD) at 07:15 AM EDT was:
  The skies were clear.
  Temperature: 73F ( 23C)  Dewpoint:  64F ( 18C)  Relative Humidity:  73%
  Winds from the CLM(CLM degs) at  0 mph.
  Altimeter:29.97 inches of mercury.
  The prevailing visibility was 10 miles.

The weather observed at STAUNTON/SHENAND, VA (KSHD) at 07:35 AM EDT was:
  The skies were clear.
  Temperature: 75F ( 24C)  Dewpoint:  64F ( 18C)  Relative Humidity:  69%
  Winds from the CLM(CLM degs) at  0 mph.
  Altimeter:29.98 inches of mercury.
  The prevailing visibility was 10 miles.

The weather observed at STAUNTON/SHENAND, VA (KSHD) at 07:55 AM EDT was:
  The skies were clear.
  Temperature: 77F ( 25C)  Dewpoint:  65F ( 18C)  Relative Humidity:  66%
  Winds from the SSW(200 degs) at  3 mph.
  Altimeter:29.98 inches of mercury.
  The prevailing visibility was 10 miles.
  The maximum temperature in the past 6 hours was  77F.

The weather observed at STAUNTON/SHENAND, VA (KSHD) at 08:15 AM EDT was:
  The skies were clear.
  Temperature: 81F ( 27C)  Dewpoint:  66F ( 19C)  Relative Humidity:  62%
  Winds from the S  (190 degs) at  3 mph.
  Altimeter:29.98 inches of mercury.
  The prevailing visibility was 10 miles.

The weather observed at STAUNTON/SHENAND, VA (KSHD) at 08:35 AM EDT was:
  The skies were clear.
  Temperature: 84F ( 29C)  Dewpoint:  66F ( 19C)  Relative Humidity:  55%
  Winds from the SSW(200 degs) at  7 mph.
  Altimeter:29.96 inches of mercury.
  The prevailing visibility was 10 miles.

The weather observed at STAUNTON/SHENAND, VA (KSHD) at 08:55 AM EDT was:
  The skies were clear.
  Temperature: 86F ( 30C)  Dewpoint:  66F ( 19C)  Relative Humidity:  52%
  Winds from the SSW(200 degs) at  9 mph.
  Altimeter:29.96 inches of mercury.
  The prevailing visibility was 10 miles.

The weather observed at STAUNTON/SHENAND, VA (KSHD) at 09:15 AM EDT was:
  The skies were clear.
  Temperature: 86F ( 30C)  Dewpoint:  66F ( 19C)  Relative Humidity:  52%
  Winds from the SSW(200 degs) at  7 mph.
  Altimeter:29.97 inches of mercury.
  The prevailing visibility was 10 miles.

The weather observed at STAUNTON/SHENAND, VA (KSHD) at 09:35 AM EDT was:
  The skies were clear.
  Temperature: 88F ( 31C)  Dewpoint:  68F ( 20C)  Relative Humidity:  52%
  Winds from the SW (220 degs) at  8 mph.
  Altimeter:29.96 inches of mercury.
  The prevailing visibility was 10 miles.

The weather observed at STAUNTON/SHENAND, VA (KSHD) at 09:55 AM EDT was:
  The skies were clear.
  Temperature: 90F ( 32C)  Dewpoint:  68F ( 20C)  Relative Humidity:  49%
  Winds from the SW (220 degs) at  8 mph.
  Altimeter:29.97 inches of mercury.
  The prevailing visibility was 10 miles.

The weather observed at STAUNTON/SHENAND, VA (KSHD) at 10:15 AM EDT was:
  The skies were clear.
  Temperature: 90F ( 32C)  Dewpoint:  66F ( 19C)  Relative Humidity:  46%
  Winds from the SW (220 degs) at  7 mph.
  Altimeter:29.97 inches of mercury.
  The prevailing visibility was 10 miles.

The weather observed at STAUNTON/SHENAND, VA (KSHD) at 10:35 AM EDT was:
  The skies were clear.
  Temperature: 90F ( 32C)  Dewpoint:  66F ( 19C)  Relative Humidity:  46%
  Winds from the SSW(200 degs) at  8 mph.
  Altimeter:29.96 inches of mercury.
  The prevailing visibility was 10 miles.

The weather observed at STAUNTON/SHENAND, VA (KSHD) at 10:55 AM EDT was:
  The skies were clear.
  Temperature: 91F ( 33C)  Dewpoint:  68F ( 20C)  Relative Humidity:  46%
  Winds from the SSW(200 degs) at 10 mph.
  Altimeter:29.96 inches of mercury.
  The prevailing visibility was 10 miles.

The weather observed at STAUNTON/SHENAND, VA (KSHD) at 11:15 AM EDT was:
  The skies were clear.
  Temperature: 91F ( 33C)  Dewpoint:  68F ( 20C)  Relative Humidity:  46%
  Winds from the SW (220 degs) at  9 mph.
  Altimeter:29.96 inches of mercury.
  The prevailing visibility was 10 miles.

The weather observed at STAUNTON/SHENAND, VA (KSHD) at 11:35 AM EDT was:
  The skies were clear.
  Temperature: 91F ( 33C)  Dewpoint:  66F ( 19C)  Relative Humidity:  44%
  Winds from the SW (230 degs) at  9 mph.
  Altimeter:29.96 inches of mercury.
  The prevailing visibility was 10 miles.

The weather observed at STAUNTON/SHENAND, VA (KSHD) at 11:55 AM EDT was:
  The skies were clear.
  Temperature: 93F ( 34C)  Dewpoint:  66F ( 19C)  Relative Humidity:  41%
  Winds from the SW (230 degs) at  7 mph.
  Altimeter:29.96 inches of mercury.
  The prevailing visibility was 10 miles.

The weather observed at STAUNTON/SHENAND, VA (KSHD) at 12:15 PM EDT was:
  The skies were clear.
  Temperature: 93F ( 34C)  Dewpoint:  66F ( 19C)  Relative Humidity:  41%
  Winds from the SW (230 degs) at  8 mph.
  Altimeter:29.95 inches of mercury.
  The prevailing visibility was 10 miles.

The weather observed at STAUNTON/SHENAND, VA (KSHD) at 12:35 PM EDT was:
  The skies were clear.
  Temperature: 95F ( 35C)  Dewpoint:  66F ( 19C)  Relative Humidity:  39%
  Winds from the W  (260 degs) at 12 mph.
  Altimeter:29.95 inches of mercury.
  The prevailing visibility was 10 miles.

The weather observed at STAUNTON/SHENAND, VA (KSHD) at 12:55 PM EDT was:
  The skies were clear.
  Temperature: 95F ( 35C)  Dewpoint:  64F ( 18C)  Relative Humidity:  37%
  Winds from the W  (260 degs) at 12 mph.
  Altimeter:29.94 inches of mercury.
  The prevailing visibility was 10 miles.

The weather observed at STAUNTON/SHENAND, VA (KSHD) at 01:15 PM EDT was:
  The skies were clear.
  Temperature: 95F ( 35C)  Dewpoint:  66F ( 19C)  Relative Humidity:  39%
  Winds from the SW (210 degs) at 10 mph.
  Altimeter:29.93 inches of mercury.
  The prevailing visibility was 10 miles.

The weather observed at STAUNTON/SHENAND, VA (KSHD) at 01:35 PM EDT was:
  The skies were clear.
  Temperature: 97F ( 36C)  Dewpoint:  64F ( 18C)  Relative Humidity:  35%
  Winds from the SW (230 degs) at 14 mph.
  Altimeter:29.92 inches of mercury.
  The prevailing visibility was 10 miles.

The weather observed at STAUNTON/SHENAND, VA (KSHD) at 01:55 PM EDT was:
  The skies were clear.
  Temperature: 97F ( 36C)  Dewpoint:  64F ( 18C)  Relative Humidity:  34%
  Winds from the SW (230 degs) at 12 mph.
  Altimeter:29.91 inches of mercury.
  The prevailing visibility was 10 miles.
  The maximum temperature in the past 6 hours was  97F.

The weather observed at STAUNTON/SHENAND, VA (KSHD) at 02:15 PM EDT was:
  The skies were partly cloudy.
  Temperature: 97F ( 36C)  Dewpoint:  64F ( 18C)  Relative Humidity:  35%
  Winds from the SW (240 degs) at 14 mph.
  Altimeter:29.90 inches of mercury.
  The prevailing visibility was 10 miles.

The weather observed at STAUNTON/SHENAND, VA (KSHD) at 02:35 PM EDT was:
  The skies were partly cloudy.
  Temperature: 97F ( 36C)  Dewpoint:  63F ( 17C)  Relative Humidity:  33%
  Winds from the SW (230 degs) at 15 mph.
  Altimeter:29.90 inches of mercury.
  The prevailing visibility was 10 miles.

The weather observed at STAUNTON/SHENAND, VA (KSHD) at 02:55 PM EDT was:
  The skies were partly cloudy.
  Temperature: 97F ( 36C)  Dewpoint:  63F ( 17C)  Relative Humidity:  33%
  Winds from the WSW(250 degs) at 13 mph.
  Altimeter:29.90 inches of mercury.
  The prevailing visibility was 10 miles.

The weather observed at STAUNTON/SHENAND, VA (KSHD) at 03:15 PM EDT was:
  The skies were partly cloudy.
  Temperature: 99F ( 37C)  Dewpoint:  63F ( 17C)  Relative Humidity:  31%
  Winds from the SW (230 degs) at 13 mph.
  Altimeter:29.89 inches of mercury.
  The prevailing visibility was 7 miles.

Short Range Forecast

Sorry no data found for shd
Make sure shd is a valid station
You might need to specify a nearby major city
Try Again

Zone Forecast

VAZ025-162100-
Augusta-
Including the cities of Staunton, Waynesboro, and Stuarts Draft
133 PM EDT Tue Jul 16 2024

...HEAT ADVISORY IN EFFECT UNTIL 8 PM EDT THIS EVENING...

.THIS AFTERNOON...Mostly sunny with scattered showers and
thunderstorms. Hot with highs in the upper 90s...except in the
lower 90s at the higher elevations. Southwest winds around 10 mph
with gusts up to 20 mph. Chance of rain 30 percent.
.TONIGHT...Mostly cloudy with scattered showers and thunderstorms
in the evening, then partly cloudy after midnight. Lows around
70. Southwest winds 5 to 10 mph. Chance of rain 30 percent.
.WEDNESDAY...Mostly sunny. Patchy fog in the morning. Isolated
showers in the morning, then numerous showers and scattered
thunderstorms in the afternoon. Highs in the mid 90s...except in
the upper 80s at the higher elevations. Southwest winds 5 to
10 mph. Chance of rain 70 percent.
.WEDNESDAY NIGHT...Numerous showers. Numerous thunderstorms,
mainly in the evening. Lows in the upper 60s. West winds 5 to
10 mph. Chance of rain 70 percent.
.THURSDAY...Mostly cloudy in the morning, then becoming partly
sunny. Scattered showers. Scattered thunderstorms in the
afternoon. Highs in the lower 80s. North winds around 5 mph.
Chance of rain 50 percent.
.THURSDAY NIGHT...Mostly cloudy. Lows in the lower 60s.
.FRIDAY...Mostly sunny. Highs in the lower 80s.
.FRIDAY NIGHT...Mostly cloudy. Lows in the mid 60s.
.SATURDAY...Partly sunny with a chance of showers and
thunderstorms. Highs in the lower 80s. Chance of rain 50 percent.
.SATURDAY NIGHT...Mostly cloudy. Lows in the mid 60s.
.SUNDAY...Partly sunny with a chance of showers and
thunderstorms. Highs in the mid 80s. Chance of rain 40 percent.
.SUNDAY NIGHT...Mostly cloudy with a chance of showers and
thunderstorms. Lows in the mid 60s. Chance of rain 40 percent.
.MONDAY...Partly sunny with a chance of showers and
thunderstorms. Highs in the mid 80s. Chance of rain 50 percent.


State Forecast

Sorry no data found for shd
Make sure shd is a valid station
You might need to specify a nearby major city
Try Again

State Forecast Discussion

Sorry no data found for shd
Make sure shd is a valid station
You might need to specify a nearby major city
Try Again

GFS Short-Range Model Output Statistics (MOS) Forecast

KSHD   GFS MOS GUIDANCE    7/16/2024  1200 UTC
DT /JULY 16/JULY 17                /JULY 18                /JULY 19
HR   18 21 00 03 06 09 12 15 18 21 00 03 06 09 12 15 18 21 00 06 12
N/X                    69          92          66          84    58
TMP  97 95 87 77 74 71 75 87 89 86 81 72 68 67 69 77 81 81 74 64 64
DPT  65 66 67 69 69 67 69 69 67 68 71 70 68 67 67 66 63 62 63 59 58
CLD  SC SC BK OV SC SC SC SC OV OV OV OV OV OV OV BK BK BK BK BK SC
WDR  22 22 25 25 19 20 20 23 22 22 23 21 28 32 01 35 02 05 02 00 02
WSP  11 10 07 02 01 01 02 07 10 11 05 02 01 01 01 03 05 05 03 00 03
P06         8    11     4     6    59    33    20    20    18  8  3
P12                    13          69          42          34    12
Q06         0     0     0     0     4     0     0     0     0  0  0
Q12                     0           3           1           0     0
T06     26/18  8/ 6  1/ 0  8/ 8 52/25 14/ 5  2/ 0 11/ 4 20/11  0/ 0
T12           34/25        8/ 9       53/25       12/ 5    20/15
CIG   8  8  8  8  8  8  8  8  8  7  6  6  6  6  6  6  7  8  8  7  8
VIS   7  7  7  7  7  7  7  7  7  7  7  7  2  1  5  7  7  7  7  7  7
OBV   N  N  N  N  N  N  N  N  N  N  N  N FG FG BR  N  N  N  N  N  N

GFS Long-Range Model Output Statistics (MOS) Forecast

KSHD   GFSX MOS GUIDANCE   7/16/2024  1200 UTC
FHR  24  36| 48  60| 72  84| 96 108|120 132|144 156|168 180|192
     WED 17| THU 18| FRI 19| SAT 20| SUN 21| MON 22| TUE 23|WED CLIMO
N/X  69  92| 66  84| 58  85| 62  86| 63  88| 63  87| 63  85| 64 62 85
TMP  75  81| 69  74| 64  77| 68  77| 68  78| 68  75| 68  75| 69
DPT  69  71| 67  63| 58  62| 65  67| 66  68| 66  66| 65  68| 66
CLD  OV  OV| OV  OV| PC  PC| OV  OV| OV  OV| OV  OV| OV  OV| OV
WND   7  11|  5   5|  3   5|  3   5|  2   4|  3   6|  2   6|  3
P12  13  69| 42  34| 12  13| 13  35| 27  37| 26  37| 24  38| 30999999
P24      69|     50|     16|     35|     45|     48|     56|      999
Q12   0   3|  1   0|  0   0|  0   0|  0   1|  0   2|       |
Q24       2|      1|      0|      0|      1|      2|       |
T12   9  52| 14  23|  7  17|  5  28| 14  34| 15  35| 14  35| 12
T24        | 52    | 23    | 17    | 31    | 34    | 35    | 35

NGM Model Output Statistics (MOS) Forecast

Climatological Summary

Sorry no data found for shd
Make sure shd is a valid station
You might need to specify a nearby major city
Try Again

Watch and Warning Statment

Sorry no data found for shd
Make sure shd is a valid station
You might need to specify a nearby major city
or it could be THERE ARE NO WATCHES OR WARNINGS for shd
Try Again

Park/Ski Recreation Report/Forecast

Sorry no data found for shd
Make sure shd is a valid station
You might need to specify a nearby major city
Try Again